Airport details for: LGTG (Greece)

Metar

LGTG 111250Z 24009KT CAVOK 16/02 Q1021 BLU

General details

ICAO: LGTG
IATA: ---
Name (city): Tanagra
Major:
Country: Greece
vACC: Hellenic vACC
Description:
Scenery links:
FS9 scenery:
FSX/P3D scenery:
XP scenery:
Elevation: 485 ft.
Transition altitude: 9000 ft.
MSA: 9800 ft.
Latitude: 38.333333
Longitude: 23.55
LGTG Charts
LGTG Notams
LGTG Online stations

Runways

Number Course Length Elevation Lat Lon ILS ILS freq ILS FAC GP
10C 99° 9810ft / 2990 m 483ft 38.333333 23.55 - - 3.0°
28C 279° 9810ft / 2990 m 453ft 38.333333 23.55 - - 3.0°